sensor_id;sensor_type;location;lat;lon;timestamp;pressure;altitude;pressure_sealevel;temperature;humidity
35888;BME280;21990;42.540;23.496;2023-05-25T07:30:25;93557.75;;;24.61;57.27
35888;BME280;21990;42.540;23.496;2023-05-25T07:32:50;93567.16;;;25.33;56.48
35888;BME280;21990;42.540;23.496;2023-05-25T07:35:16;93550.34;;;25.41;55.53
35888;BME280;21990;42.540;23.496;2023-05-25T07:37:41;93552.03;;;25.70;52.53
35888;BME280;21990;42.540;23.496;2023-05-25T07:40:07;93554.72;;;25.54;54.52
35888;BME280;21990;42.540;23.496;2023-05-25T07:42:33;93560.63;;;25.56;53.79
35888;BME280;21990;42.540;23.496;2023-05-25T07:45:00;93559.22;;;25.57;51.45
35888;BME280;21990;42.540;23.496;2023-05-25T07:47:26;93563.69;;;25.23;52.27
35888;BME280;21990;42.540;23.496;2023-05-25T07:49:52;93561.50;;;24.87;52.90
35888;BME280;21990;42.540;23.496;2023-05-25T07:52:18;93558.59;;;24.52;54.34
35888;BME280;21990;42.540;23.496;2023-05-25T07:54:44;93575.56;;;24.13;54.91
35888;BME280;21990;42.540;23.496;2023-05-25T07:57:10;93572.13;;;23.82;55.55
35888;BME280;21990;42.540;23.496;2023-05-25T07:59:35;93574.53;;;23.52;56.19
35888;BME280;21990;42.540;23.496;2023-05-25T08:02:01;93588.63;;;23.27;56.51
35888;BME280;21990;42.540;23.496;2023-05-25T08:04:27;93588.22;;;23.00;58.09
35888;BME280;21990;42.540;23.496;2023-05-25T08:06:53;93582.53;;;22.59;58.28
35888;BME280;21990;42.540;23.496;2023-05-25T08:09:19;93592.50;;;22.58;61.26
35888;BME280;21990;42.540;23.496;2023-05-25T08:11:45;93592.00;;;22.41;59.56
35888;BME280;21990;42.540;23.496;2023-05-25T08:14:11;93608.50;;;22.31;60.94
35888;BME280;21990;42.540;23.496;2023-05-25T08:16:37;93617.47;;;22.15;61.81
35888;BME280;21990;42.540;23.496;2023-05-25T08:19:02;93612.53;;;21.97;62.65
35888;BME280;21990;42.540;23.496;2023-05-25T08:21:28;93626.25;;;21.89;63.26
35888;BME280;21990;42.540;23.496;2023-05-25T08:23:54;93624.63;;;21.86;63.49
35888;BME280;21990;42.540;23.496;2023-05-25T08:26:20;93632.03;;;21.69;63.15
35888;BME280;21990;42.540;23.496;2023-05-25T08:28:47;93625.97;;;21.56;63.95
35888;BME280;21990;42.540;23.496;2023-05-25T08:31:12;93633.09;;;21.45;64.83
35888;BME280;21990;42.540;23.496;2023-05-25T08:33:38;93624.34;;;21.34;64.47
35888;BME280;21990;42.540;23.496;2023-05-25T08:36:04;93627.66;;;21.20;65.66
35888;BME280;21990;42.540;23.496;2023-05-25T08:38:29;93632.28;;;21.06;66.19
35888;BME280;21990;42.540;23.496;2023-05-25T08:41:05;93633.28;;;20.82;67.86
35888;BME280;21990;42.540;23.496;2023-05-25T08:43:32;93640.47;;;20.64;67.84
35888;BME280;21990;42.540;23.496;2023-05-25T08:46:03;93641.47;;;20.49;68.72
35888;BME280;21990;42.540;23.496;2023-05-25T08:48:32;93637.69;;;20.47;68.99
35888;BME280;21990;42.540;23.496;2023-05-25T08:51:00;93647.28;;;20.32;68.60
35888;BME280;21990;42.540;23.496;2023-05-25T08:53:27;93655.94;;;20.24;69.94
35888;BME280;21990;42.540;23.496;2023-05-25T08:55:55;93660.16;;;20.23;69.38
35888;BME280;21990;42.540;23.496;2023-05-25T08:58:30;93657.81;;;20.29;70.13
35888;BME280;21990;42.540;23.496;2023-05-25T09:01:01;93666.94;;;20.28;71.27
35888;BME280;21990;42.540;23.496;2023-05-25T09:03:28;93673.75;;;20.06;71.23
35888;BME280;21990;42.540;23.496;2023-05-25T09:05:58;93675.75;;;20.13;70.94
35888;BME280;21990;42.540;23.496;2023-05-25T09:08:24;93670.69;;;20.21;71.60
35888;BME280;21990;42.540;23.496;2023-05-25T09:10:51;93669.50;;;20.24;72.27
35888;BME280;21990;42.540;23.496;2023-05-25T09:13:18;93678.03;;;20.14;71.79
35888;BME280;21990;42.540;23.496;2023-05-25T09:15:44;93675.53;;;20.01;72.51
35888;BME280;21990;42.540;23.496;2023-05-25T09:18:09;93680.13;;;19.87;73.97
35888;BME280;21990;42.540;23.496;2023-05-25T09:20:35;93683.00;;;19.70;75.72
35888;BME280;21990;42.540;23.496;2023-05-25T09:23:00;93681.75;;;19.63;75.04
35888;BME280;21990;42.540;23.496;2023-05-25T09:25:28;93676.47;;;19.60;75.41
35888;BME280;21990;42.540;23.496;2023-05-25T09:27:55;93675.47;;;19.48;74.86
35888;BME280;21990;42.540;23.496;2023-05-25T09:30:23;93663.13;;;19.45;75.43
35888;BME280;21990;42.540;23.496;2023-05-25T09:32:49;93663.50;;;19.41;76.43
35888;BME280;21990;42.540;23.496;2023-05-25T09:35:16;93664.78;;;19.48;78.28
35888;BME280;21990;42.540;23.496;2023-05-25T09:37:42;93660.41;;;19.47;78.76
35888;BME280;21990;42.540;23.496;2023-05-25T09:40:09;93653.19;;;19.46;79.28
35888;BME280;21990;42.540;23.496;2023-05-25T09:42:37;93655.53;;;19.40;80.17
35888;BME280;21990;42.540;23.496;2023-05-25T09:45:04;93659.56;;;19.37;79.89
35888;BME280;21990;42.540;23.496;2023-05-25T09:47:30;93654.63;;;19.37;81.14
35888;BME280;21990;42.540;23.496;2023-05-25T09:49:56;93653.19;;;19.46;80.23
35888;BME280;21990;42.540;23.496;2023-05-25T09:52:22;93655.94;;;19.54;80.15
35888;BME280;21990;42.540;23.496;2023-05-25T09:54:49;93652.75;;;19.67;79.87
35888;BME280;21990;42.540;23.496;2023-05-25T09:57:15;93654.75;;;19.74;79.20
35888;BME280;21990;42.540;23.496;2023-05-25T09:59:42;93659.50;;;19.88;78.51
35888;BME280;21990;42.540;23.496;2023-05-25T10:02:08;93658.22;;;19.99;75.70
35888;BME280;21990;42.540;23.496;2023-05-25T10:04:33;93653.50;;;20.11;76.75
35888;BME280;21990;42.540;23.496;2023-05-25T10:07:05;93644.50;;;20.24;74.58
35888;BME280;21990;42.540;23.496;2023-05-25T10:09:37;93639.78;;;20.36;75.30
35888;BME280;21990;42.540;23.496;2023-05-25T10:12:05;93636.06;;;20.53;74.69
35888;BME280;21990;42.540;23.496;2023-05-25T10:14:33;93628.88;;;20.62;73.80
35888;BME280;21990;42.540;23.496;2023-05-25T10:17:03;93620.59;;;20.66;72.57
35888;BME280;21990;42.540;23.496;2023-05-25T10:19:59;93633.72;;;20.69;72.83
35888;BME280;21990;42.540;23.496;2023-05-25T10:22:35;93622.44;;;20.80;70.32
35888;BME280;21990;42.540;23.496;2023-05-25T10:26:06;93621.13;;;21.01;70.87
35888;BME280;21990;42.540;23.496;2023-05-25T10:28:28;93619.34;;;21.24;69.36
35888;BME280;21990;42.540;23.496;2023-05-25T10:30:55;93620.13;;;21.35;69.09
35888;BME280;21990;42.540;23.496;2023-05-25T10:33:22;93612.25;;;21.45;68.39
35888;BME280;21990;42.540;23.496;2023-05-25T10:35:53;93615.59;;;21.51;67.53
35888;BME280;21990;42.540;23.496;2023-05-25T10:38:20;93614.69;;;21.58;66.59
35888;BME280;21990;42.540;23.496;2023-05-25T10:40:48;93604.84;;;21.61;66.15
35888;BME280;21990;42.540;23.496;2023-05-25T10:43:19;93598.38;;;21.60;64.85
35888;BME280;21990;42.540;23.496;2023-05-25T10:45:46;93599.09;;;21.80;65.31
35888;BME280;21990;42.540;23.496;2023-05-25T10:48:13;93590.19;;;21.95;63.25
35888;BME280;21990;42.540;23.496;2023-05-25T10:50:39;93589.94;;;22.22;65.84
35888;BME280;21990;42.540;23.496;2023-05-25T10:53:12;93579.94;;;22.33;64.29
35888;BME280;21990;42.540;23.496;2023-05-25T10:58:21;93573.09;;;22.38;57.49
35888;BME280;21990;42.540;23.496;2023-05-25T11:06:19;93569.31;;;22.45;58.29
35888;BME280;21990;42.540;23.496;2023-05-25T11:08:54;93564.47;;;22.47;57.01
35888;BME280;21990;42.540;23.496;2023-05-25T11:11:20;93561.06;;;22.30;56.82
35888;BME280;21990;42.540;23.496;2023-05-25T11:13:47;93558.75;;;22.38;59.52
35888;BME280;21990;42.540;23.496;2023-05-25T11:18:57;93565.78;;;22.56;59.03
35888;BME280;21990;42.540;23.496;2023-05-25T11:26:21;93564.34;;;22.66;58.63
35888;BME280;21990;42.540;23.496;2023-05-25T11:28:47;93551.06;;;22.71;57.91
35888;BME280;21990;42.540;23.496;2023-05-25T11:31:13;93550.09;;;22.78;59.80
35888;BME280;21990;42.540;23.496;2023-05-25T11:33:39;93550.22;;;22.80;58.07
35888;BME280;21990;42.540;23.496;2023-05-25T11:36:09;93554.22;;;22.75;56.40
35888;BME280;21990;42.540;23.496;2023-05-25T11:38:40;93546.91;;;22.84;55.98
35888;BME280;21990;42.540;23.496;2023-05-25T11:41:17;93550.28;;;22.92;56.40
35888;BME280;21990;42.540;23.496;2023-05-25T11:43:45;93554.06;;;22.94;57.44
35888;BME280;21990;42.540;23.496;2023-05-25T11:46:11;93547.22;;;22.78;58.72
35888;BME280;21990;42.540;23.496;2023-05-25T11:48:58;93550.97;;;22.81;57.88
35888;BME280;21990;42.540;23.496;2023-05-25T11:51:26;93551.19;;;22.73;59.20
35888;BME280;21990;42.540;23.496;2023-05-25T11:53:52;93545.88;;;22.79;57.79
35888;BME280;21990;42.540;23.496;2023-05-25T11:56:19;93541.97;;;22.75;59.43
35888;BME280;21990;42.540;23.496;2023-05-25T11:58:46;93535.41;;;22.84;60.65
35888;BME280;21990;42.540;23.496;2023-05-25T12:01:24;93541.88;;;22.84;62.66
35888;BME280;21990;42.540;23.496;2023-05-25T12:03:51;93539.72;;;22.94;62.45
35888;BME280;21990;42.540;23.496;2023-05-25T12:06:28;93540.19;;;22.91;61.11
35888;BME280;21990;42.540;23.496;2023-05-25T12:08:55;93537.88;;;22.99;60.90
35888;BME280;21990;42.540;23.496;2023-05-25T12:11:31;93530.72;;;23.00;60.78
35888;BME280;21990;42.540;23.496;2023-05-25T12:13:58;93531.00;;;23.04;61.97
35888;BME280;21990;42.540;23.496;2023-05-25T12:16:24;93531.06;;;23.15;60.37
35888;BME280;21990;42.540;23.496;2023-05-25T12:18:51;93538.59;;;23.21;59.73
35888;BME280;21990;42.540;23.496;2023-05-25T12:21:18;93527.59;;;23.17;61.09
35888;BME280;21990;42.540;23.496;2023-05-25T12:23:44;93524.50;;;23.03;61.49
35888;BME280;21990;42.540;23.496;2023-05-25T12:26:12;93533.13;;;23.03;61.48
35888;BME280;21990;42.540;23.496;2023-05-25T12:28:39;93512.66;;;23.09;62.27
35888;BME280;21990;42.540;23.496;2023-05-25T12:31:24;93519.38;;;23.02;63.26
35888;BME280;21990;42.540;23.496;2023-05-25T12:36:49;93511.47;;;23.24;62.19
35888;BME280;21990;42.540;23.496;2023-05-25T12:39:18;93497.31;;;23.16;64.33
35888;BME280;21990;42.540;23.496;2023-05-25T12:41:59;93497.31;;;23.16;64.33
35888;BME280;21990;42.540;23.496;2023-05-25T12:44:34;93500.47;;;23.20;63.58
35888;BME280;21990;42.540;23.496;2023-05-25T12:47:16;93491.72;;;23.18;63.49
35888;BME280;21990;42.540;23.496;2023-05-25T12:49:50;93496.44;;;23.13;62.65
35888;BME280;21990;42.540;23.496;2023-05-25T12:58:06;93485.97;;;23.18;62.27
35888;BME280;21990;42.540;23.496;2023-05-25T13:00:37;93480.75;;;23.26;62.08
35888;BME280;21990;42.540;23.496;2023-05-25T13:03:04;93483.94;;;23.42;61.67
35888;BME280;21990;42.540;23.496;2023-05-25T13:05:34;93475.59;;;23.46;59.06
35888;BME280;21990;42.540;23.496;2023-05-25T13:08:01;93471.75;;;23.53;57.82
35888;BME280;21990;42.540;23.496;2023-05-25T13:10:28;93470.22;;;23.52;55.75
35888;BME280;21990;42.540;23.496;2023-05-25T13:12:54;93467.00;;;23.57;54.82
35888;BME280;21990;42.540;23.496;2023-05-25T13:15:22;93466.88;;;23.67;57.16
35888;BME280;21990;42.540;23.496;2023-05-25T13:17:49;93457.50;;;23.67;55.97
35888;BME280;21990;42.540;23.496;2023-05-25T13:20:17;93460.28;;;23.76;51.33
35888;BME280;21990;42.540;23.496;2023-05-25T13:22:43;93460.78;;;23.84;51.21
35888;BME280;21990;42.540;23.496;2023-05-25T13:25:13;93464.19;;;23.92;53.47
35888;BME280;21990;42.540;23.496;2023-05-25T13:27:44;93461.66;;;23.98;49.15
35888;BME280;21990;42.540;23.496;2023-05-25T13:30:11;93457.69;;;24.03;51.95
35888;BME280;21990;42.540;23.496;2023-05-25T13:32:37;93464.94;;;24.04;51.29
35888;BME280;21990;42.540;23.496;2023-05-25T13:35:03;93456.78;;;24.01;50.28
35888;BME280;21990;42.540;23.496;2023-05-25T13:37:31;93465.66;;;23.82;47.97
35888;BME280;21990;42.540;23.496;2023-05-25T13:39:58;93460.31;;;23.99;48.40
35888;BME280;21990;42.540;23.496;2023-05-25T13:42:24;93456.78;;;24.01;50.73
35888;BME280;21990;42.540;23.496;2023-05-25T13:44:50;93458.44;;;24.04;48.74
35888;BME280;21990;42.540;23.496;2023-05-25T13:47:15;93460.81;;;24.07;47.76
35888;BME280;21990;42.540;23.496;2023-05-25T13:49:41;93460.91;;;24.09;48.20
35888;BME280;21990;42.540;23.496;2023-05-25T13:52:07;93472.56;;;24.00;47.67
35888;BME280;21990;42.540;23.496;2023-05-25T13:54:32;93466.44;;;24.05;46.88
35888;BME280;21990;42.540;23.496;2023-05-25T13:56:58;93464.03;;;24.02;46.91
35888;BME280;21990;42.540;23.496;2023-05-25T13:59:23;93463.16;;;23.88;47.64
35888;BME280;21990;42.540;23.496;2023-05-25T14:01:49;93456.06;;;24.00;47.62
35888;BME280;21990;42.540;23.496;2023-05-25T14:04:16;93450.03;;;23.96;47.47
35888;BME280;21990;42.540;23.496;2023-05-25T14:06:42;93462.41;;;23.87;46.18
35888;BME280;21990;42.540;23.496;2023-05-25T14:09:08;93464.91;;;23.81;46.00
35888;BME280;21990;42.540;23.496;2023-05-25T14:11:35;93466.91;;;23.79;45.94
35888;BME280;21990;42.540;23.496;2023-05-25T14:14:01;93470.66;;;23.81;45.59
35888;BME280;21990;42.540;23.496;2023-05-25T14:16:27;93472.16;;;23.82;44.84
35888;BME280;21990;42.540;23.496;2023-05-25T14:18:53;93477.16;;;23.82;43.81
35888;BME280;21990;42.540;23.496;2023-05-25T14:21:19;93472.91;;;23.83;42.02
35888;BME280;21990;42.540;23.496;2023-05-25T14:23:45;93476.81;;;23.87;46.10
35888;BME280;21990;42.540;23.496;2023-05-25T14:26:11;93487.69;;;23.77;43.17
35888;BME280;21990;42.540;23.496;2023-05-25T14:28:36;93495.00;;;23.57;45.90
35888;BME280;21990;42.540;23.496;2023-05-25T14:31:02;93499.63;;;23.29;46.87
35888;BME280;21990;42.540;23.496;2023-05-25T14:33:28;93497.78;;;22.80;48.73
35888;BME280;21990;42.540;23.496;2023-05-25T14:35:53;93498.25;;;22.45;51.43
35888;BME280;21990;42.540;23.496;2023-05-25T14:38:19;93493.66;;;22.31;49.70
35888;BME280;21990;42.540;23.496;2023-05-25T14:40:44;93493.34;;;22.05;50.74
35888;BME280;21990;42.540;23.496;2023-05-25T14:43:10;93487.81;;;21.98;52.04
35888;BME280;21990;42.540;23.496;2023-05-25T14:45:35;93488.38;;;22.06;54.18
35888;BME280;21990;42.540;23.496;2023-05-25T14:48:01;93486.56;;;22.01;50.79
35888;BME280;21990;42.540;23.496;2023-05-25T14:50:26;93489.91;;;21.97;53.01
35888;BME280;21990;42.540;23.496;2023-05-25T14:52:52;93483.28;;;21.85;52.86
35888;BME280;21990;42.540;23.496;2023-05-25T14:55:18;93483.88;;;21.84;53.28
35888;BME280;21990;42.540;23.496;2023-05-25T14:57:43;93491.75;;;21.83;53.27
35888;BME280;21990;42.540;23.496;2023-05-25T15:00:09;93487.88;;;21.69;52.84
35888;BME280;21990;42.540;23.496;2023-05-25T15:02:35;93490.50;;;21.46;54.58
35888;BME280;21990;42.540;23.496;2023-05-25T15:05:01;93479.75;;;21.56;54.04
35888;BME280;21990;42.540;23.496;2023-05-25T15:07:26;93471.50;;;21.50;53.88
35888;BME280;21990;42.540;23.496;2023-05-25T15:09:52;93472.13;;;21.39;52.78
35888;BME280;21990;42.540;23.496;2023-05-25T15:12:18;93464.69;;;21.46;54.36
35888;BME280;21990;42.540;23.496;2023-05-25T15:14:43;93474.06;;;21.37;53.73
35888;BME280;21990;42.540;23.496;2023-05-25T15:17:09;93470.78;;;21.30;54.57
35888;BME280;21990;42.540;23.496;2023-05-25T15:19:35;93468.53;;;21.19;54.71
35888;BME280;21990;42.540;23.496;2023-05-25T15:22:00;93476.50;;;21.21;55.58
35888;BME280;21990;42.540;23.496;2023-05-25T15:24:26;93479.09;;;21.07;56.29
35888;BME280;21990;42.540;23.496;2023-05-25T15:26:51;93488.13;;;21.04;56.58
35888;BME280;21990;42.540;23.496;2023-05-25T15:29:17;93484.81;;;20.98;55.88
35888;BME280;21990;42.540;23.496;2023-05-25T15:31:42;93480.59;;;20.89;58.08
35888;BME280;21990;42.540;23.496;2023-05-25T15:34:08;93484.66;;;20.86;57.94
35888;BME280;21990;42.540;23.496;2023-05-25T15:36:35;93488.59;;;20.81;57.00
35888;BME280;21990;42.540;23.496;2023-05-25T15:39:01;93481.50;;;20.63;58.15
35888;BME280;21990;42.540;23.496;2023-05-25T15:41:27;93476.06;;;20.67;59.36
35888;BME280;21990;42.540;23.496;2023-05-25T15:43:54;93468.84;;;20.66;60.56
35888;BME280;21990;42.540;23.496;2023-05-25T15:46:26;93471.56;;;20.64;61.31
35888;BME280;21990;42.540;23.496;2023-05-25T15:48:52;93470.19;;;20.55;61.16
35888;BME280;21990;42.540;23.496;2023-05-25T15:51:18;93476.81;;;20.67;63.87
35888;BME280;21990;42.540;23.496;2023-05-25T15:53:43;93479.69;;;20.67;64.41
35888;BME280;21990;42.540;23.496;2023-05-25T15:56:09;93477.28;;;20.73;64.34
35888;BME280;21990;42.540;23.496;2023-05-25T15:58:35;93476.69;;;20.65;65.56
35888;BME280;21990;42.540;23.496;2023-05-25T16:01:00;93474.25;;;20.71;67.62
35888;BME280;21990;42.540;23.496;2023-05-25T16:03:27;93482.13;;;20.80;67.27
35888;BME280;21990;42.540;23.496;2023-05-25T16:05:52;93487.53;;;20.57;67.20
35888;BME280;21990;42.540;23.496;2023-05-25T16:08:18;93481.50;;;20.63;66.80
35888;BME280;21990;42.540;23.496;2023-05-25T16:10:44;93488.56;;;20.43;63.22
35888;BME280;21990;42.540;23.496;2023-05-25T16:13:10;93487.94;;;20.34;65.36
35888;BME280;21990;42.540;23.496;2023-05-25T16:15:36;93485.38;;;20.29;65.69
35888;BME280;21990;42.540;23.496;2023-05-25T16:18:01;93487.13;;;20.24;66.51
35888;BME280;21990;42.540;23.496;2023-05-25T16:20:27;93486.81;;;20.20;67.66
35888;BME280;21990;42.540;23.496;2023-05-25T16:22:54;93490.56;;;20.13;68.57
35888;BME280;21990;42.540;23.496;2023-05-25T16:25:20;93478.81;;;20.09;68.18
35888;BME280;21990;42.540;23.496;2023-05-25T16:27:45;93479.69;;;20.02;70.02
35888;BME280;21990;42.540;23.496;2023-05-25T16:30:11;93488.13;;;20.00;69.09
35888;BME280;21990;42.540;23.496;2023-05-25T16:32:37;93486.88;;;19.84;68.88
35888;BME280;21990;42.540;23.496;2023-05-25T16:35:03;93481.78;;;19.92;69.37
35888;BME280;21990;42.540;23.496;2023-05-25T16:37:28;93486.25;;;19.85;69.87
35888;BME280;21990;42.540;23.496;2023-05-25T16:39:54;93484.88;;;19.77;71.28
35888;BME280;21990;42.540;23.496;2023-05-25T16:42:20;93478.81;;;19.63;70.92
35888;BME280;21990;42.540;23.496;2023-05-25T16:44:49;93483.94;;;19.65;70.58
35888;BME280;21990;42.540;23.496;2023-05-25T16:47:15;93489.66;;;19.65;71.08
35888;BME280;21990;42.540;23.496;2023-05-25T16:49:40;93498.38;;;19.67;71.95
35888;BME280;21990;42.540;23.496;2023-05-25T16:52:06;93497.78;;;19.68;71.44
35888;BME280;21990;42.540;23.496;2023-05-25T16:54:32;93503.63;;;19.61;71.88
35888;BME280;21990;42.540;23.496;2023-05-25T16:56:57;93507.72;;;19.67;70.60
35888;BME280;21990;42.540;23.496;2023-05-25T16:59:23;93501.91;;;19.48;71.09
35888;BME280;21990;42.540;23.496;2023-05-25T17:01:48;93507.16;;;19.25;72.87
35888;BME280;21990;42.540;23.496;2023-05-25T17:04:15;93504.88;;;19.23;73.70
35888;BME280;21990;42.540;23.496;2023-05-25T17:06:40;93509.72;;;19.30;71.62
35888;BME280;21990;42.540;23.496;2023-05-25T17:09:06;93515.09;;;19.26;71.93
35888;BME280;21990;42.540;23.496;2023-05-25T17:11:32;93514.19;;;19.24;72.74
35888;BME280;21990;42.540;23.496;2023-05-25T17:13:58;93515.06;;;19.17;73.18
35888;BME280;21990;42.540;23.496;2023-05-25T17:16:24;93528.34;;;19.05;73.86
35888;BME280;21990;42.540;23.496;2023-05-25T17:18:49;93527.25;;;19.00;74.64
35888;BME280;21990;42.540;23.496;2023-05-25T17:21:15;93528.09;;;18.93;75.03
35888;BME280;21990;42.540;23.496;2023-05-25T17:23:41;93528.19;;;18.85;74.71
35888;BME280;21990;42.540;23.496;2023-05-25T17:26:06;93525.44;;;18.78;75.07
35888;BME280;21990;42.540;23.496;2023-05-25T17:28:32;93528.94;;;18.69;75.39
35888;BME280;21990;42.540;23.496;2023-05-25T17:30:58;93538.13;;;18.67;75.65
35888;BME280;21990;42.540;23.496;2023-05-25T17:33:24;93542.88;;;18.65;74.74
35888;BME280;21990;42.540;23.496;2023-05-25T17:35:50;93544.56;;;18.68;75.24
35888;BME280;21990;42.540;23.496;2023-05-25T17:38:16;93557.69;;;18.71;74.64
35888;BME280;21990;42.540;23.496;2023-05-25T17:40:41;93570.66;;;18.64;75.26
35888;BME280;21990;42.540;23.496;2023-05-25T17:43:07;93571.81;;;18.44;76.49
35888;BME280;21990;42.540;23.496;2023-05-25T17:45:32;93578.09;;;18.18;78.49
35888;BME280;21990;42.540;23.496;2023-05-25T17:47:58;93569.88;;;18.05;77.92
35888;BME280;21990;42.540;23.496;2023-05-25T17:50:24;93586.03;;;18.02;78.24
35888;BME280;21990;42.540;23.496;2023-05-25T17:52:49;93573.63;;;18.07;77.86
35888;BME280;21990;42.540;23.496;2023-05-25T17:55:16;93577.66;;;18.04;77.98
35888;BME280;21990;42.540;23.496;2023-05-25T17:57:41;93590.19;;;18.09;78.35
35888;BME280;21990;42.540;23.496;2023-05-25T18:00:07;93586.38;;;18.06;77.95
35888;BME280;21990;42.540;23.496;2023-05-25T18:02:33;93583.41;;;17.96;77.74
35888;BME280;21990;42.540;23.496;2023-05-25T18:04:58;93582.06;;;17.73;78.49
35888;BME280;21990;42.540;23.496;2023-05-25T18:07:24;93581.66;;;17.76;79.45
35888;BME280;21990;42.540;23.496;2023-05-25T18:09:50;93575.56;;;17.80;78.98
35888;BME280;21990;42.540;23.496;2023-05-25T18:12:16;93573.47;;;17.80;79.24
35888;BME280;21990;42.540;23.496;2023-05-25T18:14:41;93576.78;;;17.69;79.43
35888;BME280;21990;42.540;23.496;2023-05-25T18:17:07;93591.84;;;17.54;79.88
35888;BME280;21990;42.540;23.496;2023-05-25T18:19:33;93597.00;;;17.48;80.59
35888;BME280;21990;42.540;23.496;2023-05-25T18:21:59;93603.97;;;17.55;80.34
35888;BME280;21990;42.540;23.496;2023-05-25T18:24:24;93599.06;;;17.48;80.58
35888;BME280;21990;42.540;23.496;2023-05-25T18:26:50;93611.66;;;17.37;80.40
35888;BME280;21990;42.540;23.496;2023-05-25T18:29:16;93614.13;;;17.41;80.68
35888;BME280;21990;42.540;23.496;2023-05-25T18:31:41;93609.53;;;17.45;80.08
35888;BME280;21990;42.540;23.496;2023-05-25T18:34:12;93616.94;;;17.48;80.30
35888;BME280;21990;42.540;23.496;2023-05-25T18:36:38;93623.78;;;17.45;81.15
35888;BME280;21990;42.540;23.496;2023-05-25T18:39:04;93632.16;;;17.36;81.38
35888;BME280;21990;42.540;23.496;2023-05-25T18:41:29;93637.97;;;17.13;82.07
35888;BME280;21990;42.540;23.496;2023-05-25T18:43:55;93637.22;;;17.05;83.00
35888;BME280;21990;42.540;23.496;2023-05-25T18:46:21;93642.00;;;16.95;82.95
35888;BME280;21990;42.540;23.496;2023-05-25T18:48:48;93641.63;;;16.91;83.66
35888;BME280;21990;42.540;23.496;2023-05-25T18:51:13;93647.47;;;17.00;83.61
35888;BME280;21990;42.540;23.496;2023-05-25T18:53:42;93659.06;;;17.02;84.54
35888;BME280;21990;42.540;23.496;2023-05-25T18:56:08;93661.94;;;16.95;84.57
35888;BME280;21990;42.540;23.496;2023-05-25T18:58:34;93661.38;;;16.81;84.72
35888;BME280;21990;42.540;23.496;2023-05-25T19:01:00;93665.00;;;16.67;86.00
35888;BME280;21990;42.540;23.496;2023-05-25T19:03:25;93668.81;;;16.61;86.72
35888;BME280;21990;42.540;23.496;2023-05-25T19:05:51;93670.50;;;16.80;86.52
35888;BME280;21990;42.540;23.496;2023-05-25T19:08:17;93673.13;;;16.85;86.65
35888;BME280;21990;42.540;23.496;2023-05-25T19:10:42;93687.56;;;16.80;88.20
35888;BME280;21990;42.540;23.496;2023-05-25T19:13:08;93694.59;;;16.79;88.17
35888;BME280;21990;42.540;23.496;2023-05-25T19:15:34;93702.56;;;16.80;88.09
35888;BME280;21990;42.540;23.496;2023-05-25T19:18:00;93713.56;;;16.76;89.10
35888;BME280;21990;42.540;23.496;2023-05-25T19:20:29;93711.13;;;16.73;89.41
35888;BME280;21990;42.540;23.496;2023-05-25T19:22:57;93716.97;;;16.75;90.06
35888;BME280;21990;42.540;23.496;2023-05-25T19:25:23;93729.28;;;16.47;90.73
35888;BME280;21990;42.540;23.496;2023-05-25T19:27:49;93736.50;;;16.55;91.98
35888;BME280;21990;42.540;23.496;2023-05-25T19:30:14;93732.31;;;16.49;92.25
35888;BME280;21990;42.540;23.496;2023-05-25T19:32:40;93733.09;;;16.42;92.21
35888;BME280;21990;42.540;23.496;2023-05-25T19:35:06;93719.78;;;16.22;93.15
35888;BME280;21990;42.540;23.496;2023-05-25T19:37:32;93731.13;;;16.06;94.25
35888;BME280;21990;42.540;23.496;2023-05-25T19:39:57;93721.84;;;16.13;94.58
35888;BME280;21990;42.540;23.496;2023-05-25T19:42:23;93720.91;;;16.19;96.23
35888;BME280;21990;42.540;23.496;2023-05-25T19:44:49;93721.81;;;15.98;96.04
35888;BME280;21990;42.540;23.496;2023-05-25T19:47:14;93719.94;;;16.08;95.92
35888;BME280;21990;42.540;23.496;2023-05-25T19:49:40;93729.59;;;16.05;95.91
35888;BME280;21990;42.540;23.496;2023-05-25T19:52:06;93728.84;;;16.05;96.95
35888;BME280;21990;42.540;23.496;2023-05-25T19:54:32;93722.22;;;16.02;97.64
35888;BME280;21990;42.540;23.496;2023-05-25T19:56:58;93709.13;;;15.99;97.67
35888;BME280;21990;42.540;23.496;2023-05-25T19:59:23;93703.63;;;16.01;97.42
35888;BME280;21990;42.540;23.496;2023-05-25T20:01:53;93700.19;;;15.95;97.58
35888;BME280;21990;42.540;23.496;2023-05-25T20:04:18;93689.03;;;15.90;97.82
35888;BME280;21990;42.540;23.496;2023-05-25T20:06:44;93673.88;;;15.95;98.08
35888;BME280;21990;42.540;23.496;2023-05-25T20:09:10;93671.97;;;15.82;98.01
35888;BME280;21990;42.540;23.496;2023-05-25T20:11:38;93662.69;;;15.82;98.11
35888;BME280;21990;42.540;23.496;2023-05-25T20:14:06;93653.00;;;15.77;98.63
35888;BME280;21990;42.540;23.496;2023-05-25T20:16:31;93631.94;;;15.65;99.76
35888;BME280;21990;42.540;23.496;2023-05-25T20:18:57;93628.94;;;15.63;99.98
35888;BME280;21990;42.540;23.496;2023-05-25T20:21:23;93620.03;;;15.66;99.93
35888;BME280;21990;42.540;23.496;2023-05-25T20:23:49;93619.66;;;15.62;99.58
35888;BME280;21990;42.540;23.496;2023-05-25T20:26:15;93611.13;;;15.62;99.84
35888;BME280;21990;42.540;23.496;2023-05-25T20:28:41;93609.22;;;15.65;99.84
35888;BME280;21990;42.540;23.496;2023-05-25T20:31:07;93610.56;;;15.64;100.00
35888;BME280;21990;42.540;23.496;2023-05-25T20:33:33;93602.06;;;15.72;100.00
35888;BME280;21990;42.540;23.496;2023-05-25T20:35:59;93598.09;;;15.75;99.40
35888;BME280;21990;42.540;23.496;2023-05-25T20:38:24;93590.50;;;15.77;98.46
35888;BME280;21990;42.540;23.496;2023-05-25T20:40:50;93596.38;;;15.72;99.10
35888;BME280;21990;42.540;23.496;2023-05-25T20:43:16;93594.66;;;15.68;99.24